sensor_id;sensor_type;location;lat;lon;timestamp;pressure;altitude;pressure_sealevel;temperature;humidity
23172;BME280;11754;42.664;23.594;2024-01-11T00:00:29;96417.56;;;-4.61;67.17
23172;BME280;11754;42.664;23.594;2024-01-11T00:02:54;96418.44;;;-4.62;67.60
23172;BME280;11754;42.664;23.594;2024-01-11T00:05:20;96409.38;;;-4.73;68.12
23172;BME280;11754;42.664;23.594;2024-01-11T00:07:46;96410.44;;;-4.79;67.94
23172;BME280;11754;42.664;23.594;2024-01-11T00:10:12;96406.28;;;-4.83;68.56
23172;BME280;11754;42.664;23.594;2024-01-11T00:12:38;96399.75;;;-4.93;68.96
23172;BME280;11754;42.664;23.594;2024-01-11T00:15:03;96400.53;;;-4.91;68.82
23172;BME280;11754;42.664;23.594;2024-01-11T00:17:29;96403.28;;;-4.96;68.39
23172;BME280;11754;42.664;23.594;2024-01-11T00:19:54;96401.63;;;-4.98;68.71
23172;BME280;11754;42.664;23.594;2024-01-11T00:22:20;96391.94;;;-4.90;68.09
23172;BME280;11754;42.664;23.594;2024-01-11T00:24:45;96394.63;;;-4.93;68.33
23172;BME280;11754;42.664;23.594;2024-01-11T00:27:11;96388.75;;;-4.98;68.28
23172;BME280;11754;42.664;23.594;2024-01-11T00:29:36;96393.31;;;-5.07;68.54
23172;BME280;11754;42.664;23.594;2024-01-11T00:32:02;96386.69;;;-5.14;68.76
23172;BME280;11754;42.664;23.594;2024-01-11T00:34:28;96385.78;;;-5.13;69.16
23172;BME280;11754;42.664;23.594;2024-01-11T00:36:53;96384.94;;;-5.12;69.02
23172;BME280;11754;42.664;23.594;2024-01-11T00:39:19;96379.63;;;-5.07;68.46
23172;BME280;11754;42.664;23.594;2024-01-11T00:41:44;96386.50;;;-5.08;69.28
23172;BME280;11754;42.664;23.594;2024-01-11T00:44:10;96377.38;;;-4.91;67.83
23172;BME280;11754;42.664;23.594;2024-01-11T00:46:35;96376.34;;;-4.86;67.16
23172;BME280;11754;42.664;23.594;2024-01-11T00:49:02;96376.38;;;-4.87;67.08
23172;BME280;11754;42.664;23.594;2024-01-11T00:51:27;96371.13;;;-4.84;66.81
23172;BME280;11754;42.664;23.594;2024-01-11T00:53:53;96375.09;;;-4.74;66.18
23172;BME280;11754;42.664;23.594;2024-01-11T00:56:19;96366.22;;;-4.90;66.19
23172;BME280;11754;42.664;23.594;2024-01-11T00:58:45;96369.19;;;-5.02;65.81
23172;BME280;11754;42.664;23.594;2024-01-11T01:01:11;96366.91;;;-5.12;66.17
23172;BME280;11754;42.664;23.594;2024-01-11T01:03:37;96370.41;;;-5.14;65.68
23172;BME280;11754;42.664;23.594;2024-01-11T01:06:03;96369.38;;;-5.35;66.42
23172;BME280;11754;42.664;23.594;2024-01-11T01:08:29;96368.19;;;-5.25;66.74
23172;BME280;11754;42.664;23.594;2024-01-11T01:10:55;96367.59;;;-5.33;67.19
23172;BME280;11754;42.664;23.594;2024-01-11T01:13:20;96367.69;;;-5.36;66.93
23172;BME280;11754;42.664;23.594;2024-01-11T01:15:46;96368.47;;;-5.34;67.47
23172;BME280;11754;42.664;23.594;2024-01-11T01:18:11;96360.97;;;-5.40;67.19
23172;BME280;11754;42.664;23.594;2024-01-11T01:20:37;96360.16;;;-5.42;68.01
23172;BME280;11754;42.664;23.594;2024-01-11T01:23:03;96355.84;;;-5.42;67.93
23172;BME280;11754;42.664;23.594;2024-01-11T01:25:28;96357.59;;;-5.42;67.86
23172;BME280;11754;42.664;23.594;2024-01-11T01:27:55;96359.88;;;-5.33;68.07
23172;BME280;11754;42.664;23.594;2024-01-11T01:30:20;96360.06;;;-5.39;67.88
23172;BME280;11754;42.664;23.594;2024-01-11T01:32:46;96361.38;;;-5.26;67.64
23172;BME280;11754;42.664;23.594;2024-01-11T01:35:11;96354.25;;;-5.18;67.60
23172;BME280;11754;42.664;23.594;2024-01-11T01:37:37;96341.72;;;-5.02;67.41
23172;BME280;11754;42.664;23.594;2024-01-11T01:40:02;96346.09;;;-5.04;66.82
23172;BME280;11754;42.664;23.594;2024-01-11T01:42:28;96345.13;;;-5.28;67.70
23172;BME280;11754;42.664;23.594;2024-01-11T01:44:54;96339.22;;;-5.30;67.56
23172;BME280;11754;42.664;23.594;2024-01-11T01:47:19;96344.38;;;-5.30;67.65
23172;BME280;11754;42.664;23.594;2024-01-11T01:49:46;96342.28;;;-5.19;67.75
23172;BME280;11754;42.664;23.594;2024-01-11T01:52:14;96341.13;;;-5.10;67.52
23172;BME280;11754;42.664;23.594;2024-01-11T01:54:50;96340.19;;;-5.08;67.11
23172;BME280;11754;42.664;23.594;2024-01-11T01:57:17;96339.22;;;-5.05;66.93
23172;BME280;11754;42.664;23.594;2024-01-11T01:59:44;96332.00;;;-5.19;67.53
23172;BME280;11754;42.664;23.594;2024-01-11T02:02:11;96330.41;;;-5.23;67.61
23172;BME280;11754;42.664;23.594;2024-01-11T02:04:37;96329.25;;;-5.14;67.53
23172;BME280;11754;42.664;23.594;2024-01-11T02:07:04;96327.91;;;-4.99;66.63
23172;BME280;11754;42.664;23.594;2024-01-11T02:09:30;96322.00;;;-5.28;66.92
23172;BME280;11754;42.664;23.594;2024-01-11T02:11:55;96324.25;;;-5.45;67.79
23172;BME280;11754;42.664;23.594;2024-01-11T02:14:21;96325.25;;;-5.49;67.89
23172;BME280;11754;42.664;23.594;2024-01-11T02:16:46;96325.34;;;-5.52;68.58
23172;BME280;11754;42.664;23.594;2024-01-11T02:19:18;96314.47;;;-5.61;68.27
23172;BME280;11754;42.664;23.594;2024-01-11T02:21:46;96316.34;;;-5.66;68.72
23172;BME280;11754;42.664;23.594;2024-01-11T02:24:13;96316.34;;;-5.66;68.24
23172;BME280;11754;42.664;23.594;2024-01-11T02:27:01;96312.06;;;-5.67;68.54
23172;BME280;11754;42.664;23.594;2024-01-11T02:29:27;96311.09;;;-5.63;68.25
23172;BME280;11754;42.664;23.594;2024-01-11T02:31:54;96307.59;;;-5.60;67.74
23172;BME280;11754;42.664;23.594;2024-01-11T02:34:21;96305.03;;;-5.60;67.93
23172;BME280;11754;42.664;23.594;2024-01-11T02:36:47;96311.09;;;-5.63;67.74
23172;BME280;11754;42.664;23.594;2024-01-11T02:39:13;96310.41;;;-5.68;67.62
23172;BME280;11754;42.664;23.594;2024-01-11T02:41:42;96310.50;;;-5.71;67.97
23172;BME280;11754;42.664;23.594;2024-01-11T02:44:08;96304.94;;;-5.85;68.04
23172;BME280;11754;42.664;23.594;2024-01-11T02:46:34;96301.59;;;-5.87;68.09
23172;BME280;11754;42.664;23.594;2024-01-11T02:48:59;96306.16;;;-5.69;67.91
23172;BME280;11754;42.664;23.594;2024-01-11T02:51:26;96300.53;;;-5.53;66.22
23172;BME280;11754;42.664;23.594;2024-01-11T02:53:52;96304.09;;;-5.58;66.21
23172;BME280;11754;42.664;23.594;2024-01-11T02:56:17;96299.72;;;-5.56;65.65
23172;BME280;11754;42.664;23.594;2024-01-11T02:58:43;96300.63;;;-5.57;65.21
23172;BME280;11754;42.664;23.594;2024-01-11T03:01:08;96298.38;;;-5.67;64.89
23172;BME280;11754;42.664;23.594;2024-01-11T03:03:34;96301.13;;;-5.72;64.65
23172;BME280;11754;42.664;23.594;2024-01-11T03:05:59;96298.13;;;-5.86;64.73
23172;BME280;11754;42.664;23.594;2024-01-11T03:08:26;96295.81;;;-5.94;64.94
23172;BME280;11754;42.664;23.594;2024-01-11T03:10:51;96300.31;;;-6.00;65.35
23172;BME280;11754;42.664;23.594;2024-01-11T03:13:17;96304.63;;;-6.02;65.15
23172;BME280;11754;42.664;23.594;2024-01-11T03:15:42;96303.94;;;-6.08;65.46
23172;BME280;11754;42.664;23.594;2024-01-11T03:18:08;96301.97;;;-5.99;65.45
23172;BME280;11754;42.664;23.594;2024-01-11T03:20:34;96295.00;;;-5.94;65.03
23172;BME280;11754;42.664;23.594;2024-01-11T03:22:59;96297.69;;;-5.99;65.11
23172;BME280;11754;42.664;23.594;2024-01-11T03:25:25;96276.66;;;-6.12;65.23
23172;BME280;11754;42.664;23.594;2024-01-11T03:27:50;96287.78;;;-6.11;65.61
23172;BME280;11754;42.664;23.594;2024-01-11T03:30:16;96287.72;;;-6.10;65.80
23172;BME280;11754;42.664;23.594;2024-01-11T03:32:42;96285.91;;;-6.06;66.03
23172;BME280;11754;42.664;23.594;2024-01-11T03:35:07;96279.56;;;-6.22;66.87
23172;BME280;11754;42.664;23.594;2024-01-11T03:37:34;96277.66;;;-6.16;67.14
23172;BME280;11754;42.664;23.594;2024-01-11T03:40:00;96282.38;;;-6.02;66.68
23172;BME280;11754;42.664;23.594;2024-01-11T03:42:26;96275.75;;;-6.09;66.35
23172;BME280;11754;42.664;23.594;2024-01-11T03:44:51;96276.38;;;-6.02;66.18
23172;BME280;11754;42.664;23.594;2024-01-11T03:47:17;96269.31;;;-5.94;66.16
23172;BME280;11754;42.664;23.594;2024-01-11T03:49:42;96274.63;;;-6.00;66.36
23172;BME280;11754;42.664;23.594;2024-01-11T03:52:08;96277.25;;;-6.02;66.32
23172;BME280;11754;42.664;23.594;2024-01-11T03:54:33;96265.47;;;-6.09;66.42
23172;BME280;11754;42.664;23.594;2024-01-11T03:56:58;96274.56;;;-6.27;67.26
23172;BME280;11754;42.664;23.594;2024-01-11T03:59:24;96272.75;;;-6.23;67.00
23172;BME280;11754;42.664;23.594;2024-01-11T04:02:09;96269.00;;;-6.13;66.59
23172;BME280;11754;42.664;23.594;2024-01-11T04:04:34;96277.56;;;-6.13;66.91
23172;BME280;11754;42.664;23.594;2024-01-11T04:07:00;96281.00;;;-6.14;66.93
23172;BME280;11754;42.664;23.594;2024-01-11T04:09:25;96278.16;;;-6.05;65.97
23172;BME280;11754;42.664;23.594;2024-01-11T04:11:51;96279.94;;;-6.07;66.27
23172;BME280;11754;42.664;23.594;2024-01-11T04:14:16;96276.38;;;-6.02;66.03
23172;BME280;11754;42.664;23.594;2024-01-11T04:16:43;96266.47;;;-6.15;66.12
23172;BME280;11754;42.664;23.594;2024-01-11T04:19:09;96276.94;;;-6.21;66.35
23172;BME280;11754;42.664;23.594;2024-01-11T04:21:34;96267.63;;;-6.25;66.79
23172;BME280;11754;42.664;23.594;2024-01-11T04:24:00;96266.66;;;-6.21;66.95
23172;BME280;11754;42.664;23.594;2024-01-11T04:26:26;96257.88;;;-6.14;66.74
23172;BME280;11754;42.664;23.594;2024-01-11T04:28:52;96254.81;;;-6.25;66.84
23172;BME280;11754;42.664;23.594;2024-01-11T04:31:18;96251.53;;;-6.30;67.13
23172;BME280;11754;42.664;23.594;2024-01-11T04:33:44;96261.59;;;-6.24;67.30
23172;BME280;11754;42.664;23.594;2024-01-11T04:36:11;96260.84;;;-6.28;67.25
23172;BME280;11754;42.664;23.594;2024-01-11T04:38:37;96259.75;;;-6.19;67.09
23172;BME280;11754;42.664;23.594;2024-01-11T04:41:14;96259.69;;;-6.16;66.83
23172;BME280;11754;42.664;23.594;2024-01-11T04:43:41;96264.25;;;-5.97;66.82
23172;BME280;11754;42.664;23.594;2024-01-11T04:48:42;96262.56;;;-5.98;66.30
23172;BME280;11754;42.664;23.594;2024-01-11T04:51:08;96261.22;;;-5.84;65.83
23172;BME280;11754;42.664;23.594;2024-01-11T04:53:37;96268.88;;;-5.82;65.89
23172;BME280;11754;42.664;23.594;2024-01-11T04:56:03;96266.41;;;-5.85;65.64
23172;BME280;11754;42.664;23.594;2024-01-11T04:58:28;96270.66;;;-5.84;65.74
23172;BME280;11754;42.664;23.594;2024-01-11T05:00:54;96262.84;;;-5.81;64.83
23172;BME280;11754;42.664;23.594;2024-01-11T05:03:20;96264.47;;;-5.78;65.03
23172;BME280;11754;42.664;23.594;2024-01-11T05:05:45;96270.31;;;-5.73;65.13
23172;BME280;11754;42.664;23.594;2024-01-11T05:08:11;96272.53;;;-5.89;65.16
23172;BME280;11754;42.664;23.594;2024-01-11T05:10:36;96265.00;;;-5.94;66.30
23172;BME280;11754;42.664;23.594;2024-01-11T05:13:02;96260.97;;;-6.02;66.02
23172;BME280;11754;42.664;23.594;2024-01-11T05:15:27;96260.22;;;-6.06;66.58
23172;BME280;11754;42.664;23.594;2024-01-11T05:17:55;96257.31;;;-5.95;66.17
23172;BME280;11754;42.664;23.594;2024-01-11T05:20:20;96258.38;;;-6.01;66.01
23172;BME280;11754;42.664;23.594;2024-01-11T05:22:46;96260.97;;;-6.02;65.82
23172;BME280;11754;42.664;23.594;2024-01-11T05:25:11;96254.34;;;-6.10;66.20
23172;BME280;11754;42.664;23.594;2024-01-11T05:27:37;96254.63;;;-6.19;66.45
23172;BME280;11754;42.664;23.594;2024-01-11T05:36:52;96243.72;;;-5.99;65.47
23172;BME280;11754;42.664;23.594;2024-01-11T05:39:17;96245.47;;;-5.99;65.81
23172;BME280;11754;42.664;23.594;2024-01-11T05:41:44;96239.66;;;-6.05;65.67
23172;BME280;11754;42.664;23.594;2024-01-11T05:44:10;96236.00;;;-5.97;66.72
23172;BME280;11754;42.664;23.594;2024-01-11T05:46:35;96237.22;;;-5.83;67.01
23172;BME280;11754;42.664;23.594;2024-01-11T05:49:01;96232.63;;;-5.99;66.08
23172;BME280;11754;42.664;23.594;2024-01-11T05:51:26;96233.69;;;-6.07;66.02
23172;BME280;11754;42.664;23.594;2024-01-11T05:53:52;96235.56;;;-6.12;66.06
23172;BME280;11754;42.664;23.594;2024-01-11T05:56:18;96228.19;;;-5.94;65.25
23172;BME280;11754;42.664;23.594;2024-01-11T05:58:45;96228.59;;;-5.82;64.78
23172;BME280;11754;42.664;23.594;2024-01-11T06:01:11;96235.69;;;-5.62;64.08
23172;BME280;11754;42.664;23.594;2024-01-11T06:03:37;96232.91;;;-5.82;64.17
23172;BME280;11754;42.664;23.594;2024-01-11T06:06:05;96237.06;;;-6.05;64.81
23172;BME280;11754;42.664;23.594;2024-01-11T06:08:31;96236.91;;;-5.98;65.08
23172;BME280;11754;42.664;23.594;2024-01-11T06:10:57;96228.75;;;-5.86;64.33
23172;BME280;11754;42.664;23.594;2024-01-11T06:13:23;96234.78;;;-5.61;63.98
23172;BME280;11754;42.664;23.594;2024-01-11T06:15:49;96237.25;;;-5.58;62.83
23172;BME280;11754;42.664;23.594;2024-01-11T06:21:36;96229.22;;;-5.48;62.33
23172;BME280;11754;42.664;23.594;2024-01-11T06:24:02;96236.94;;;-5.48;61.83
23172;BME280;11754;42.664;23.594;2024-01-11T06:26:29;96229.53;;;-5.58;62.01
23172;BME280;11754;42.664;23.594;2024-01-11T06:28:54;96230.72;;;-5.68;62.14
23172;BME280;11754;42.664;23.594;2024-01-11T06:31:19;96220.25;;;-5.62;62.10
23172;BME280;11754;42.664;23.594;2024-01-11T06:37:22;96224.69;;;-5.40;62.16
23172;BME280;11754;42.664;23.594;2024-01-11T06:39:48;96225.09;;;-5.27;61.83
23172;BME280;11754;42.664;23.594;2024-01-11T06:42:13;96218.34;;;-5.30;61.88
23172;BME280;11754;42.664;23.594;2024-01-11T06:44:39;96223.00;;;-5.41;62.25
23172;BME280;11754;42.664;23.594;2024-01-11T06:47:05;96213.50;;;-5.39;62.79
23172;BME280;11754;42.664;23.594;2024-01-11T06:56:26;96208.44;;;-4.45;60.61
23172;BME280;11754;42.664;23.594;2024-01-11T06:58:54;96216.41;;;-4.51;60.61
23172;BME280;11754;42.664;23.594;2024-01-11T07:01:19;96217.50;;;-4.35;60.49
23172;BME280;11754;42.664;23.594;2024-01-11T07:03:45;96211.50;;;-4.57;60.92
23172;BME280;11754;42.664;23.594;2024-01-11T07:06:10;96197.81;;;-4.60;60.97
23172;BME280;11754;42.664;23.594;2024-01-11T07:08:36;96204.84;;;-4.41;60.98
23172;BME280;11754;42.664;23.594;2024-01-11T07:11:02;96200.44;;;-4.16;61.16
23172;BME280;11754;42.664;23.594;2024-01-11T07:13:31;96201.44;;;-3.96;59.90
23172;BME280;11754;42.664;23.594;2024-01-11T07:15:57;96205.25;;;-3.84;59.57
23172;BME280;11754;42.664;23.594;2024-01-11T07:18:24;96210.38;;;-3.63;59.10
23172;BME280;11754;42.664;23.594;2024-01-11T07:20:50;96202.16;;;-3.30;58.52
23172;BME280;11754;42.664;23.594;2024-01-11T07:23:16;96195.94;;;-3.26;58.03
23172;BME280;11754;42.664;23.594;2024-01-11T07:25:42;96195.16;;;-2.87;57.74
23172;BME280;11754;42.664;23.594;2024-01-11T07:28:07;96198.97;;;-2.96;56.82
23172;BME280;11754;42.664;23.594;2024-01-11T07:30:33;96193.16;;;-2.61;56.52
23172;BME280;11754;42.664;23.594;2024-01-11T07:32:59;96195.25;;;-2.70;56.43
23172;BME280;11754;42.664;23.594;2024-01-11T07:35:24;96191.63;;;-2.28;56.38
23172;BME280;11754;42.664;23.594;2024-01-11T07:37:50;96192.69;;;-1.77;54.20
23172;BME280;11754;42.664;23.594;2024-01-11T07:40:16;96185.84;;;-1.60;53.97
23172;BME280;11754;42.664;23.594;2024-01-11T07:42:43;96188.59;;;-1.29;53.53
23172;BME280;11754;42.664;23.594;2024-01-11T07:45:09;96183.06;;;-0.88;51.61
23172;BME280;11754;42.664;23.594;2024-01-11T07:47:38;96180.19;;;-0.66;50.28
23172;BME280;11754;42.664;23.594;2024-01-11T07:50:07;96182.44;;;-0.76;51.18
23172;BME280;11754;42.664;23.594;2024-01-11T07:52:35;96181.22;;;-0.37;49.53
23172;BME280;11754;42.664;23.594;2024-01-11T07:55:00;96167.56;;;-0.72;50.87
23172;BME280;11754;42.664;23.594;2024-01-11T07:57:32;96175.13;;;-0.36;50.95
23172;BME280;11754;42.664;23.594;2024-01-11T07:59:58;96173.47;;;-0.05;50.02
23172;BME280;11754;42.664;23.594;2024-01-11T08:02:28;96167.47;;;0.24;50.07
23172;BME280;11754;42.664;23.594;2024-01-11T08:04:53;96166.03;;;0.35;50.27
23172;BME280;11754;42.664;23.594;2024-01-11T08:07:19;96161.56;;;0.22;50.38
23172;BME280;11754;42.664;23.594;2024-01-11T08:09:44;96164.81;;;0.10;50.75
23172;BME280;11754;42.664;23.594;2024-01-11T08:12:11;96162.50;;;0.52;51.65
23172;BME280;11754;42.664;23.594;2024-01-11T08:14:37;96168.47;;;1.27;49.33
23172;BME280;11754;42.664;23.594;2024-01-11T08:17:02;96165.34;;;0.77;48.95
23172;BME280;11754;42.664;23.594;2024-01-11T08:19:30;96162.44;;;0.67;49.77
23172;BME280;11754;42.664;23.594;2024-01-11T08:21:56;96161.75;;;0.80;49.17
23172;BME280;11754;42.664;23.594;2024-01-11T08:24:22;96155.53;;;0.06;51.07
23172;BME280;11754;42.664;23.594;2024-01-11T08:26:47;96154.47;;;0.70;50.60
23172;BME280;11754;42.664;23.594;2024-01-11T08:29:13;96154.28;;;0.74;50.27
23172;BME280;11754;42.664;23.594;2024-01-11T08:31:39;96147.66;;;1.12;49.71
23172;BME280;11754;42.664;23.594;2024-01-11T08:34:05;96144.56;;;1.77;49.04
23172;BME280;11754;42.664;23.594;2024-01-11T08:36:31;96139.53;;;2.55;47.20
23172;BME280;11754;42.664;23.594;2024-01-11T08:39:00;96141.16;;;3.22;45.50
23172;BME280;11754;42.664;23.594;2024-01-11T08:41:25;96140.88;;;3.76;43.98
23172;BME280;11754;42.664;23.594;2024-01-11T08:43:51;96131.22;;;4.26;42.57
23172;BME280;11754;42.664;23.594;2024-01-11T08:46:26;96137.91;;;4.41;42.58
23172;BME280;11754;42.664;23.594;2024-01-11T08:48:55;96136.19;;;4.99;39.88
23172;BME280;11754;42.664;23.594;2024-01-11T08:51:22;96123.66;;;5.61;38.50
23172;BME280;11754;42.664;23.594;2024-01-11T08:53:47;96124.34;;;5.51;38.90
23172;BME280;11754;42.664;23.594;2024-01-11T08:56:13;96119.84;;;5.53;39.07
23172;BME280;11754;42.664;23.594;2024-01-11T08:58:42;96110.47;;;6.81;37.17
23172;BME280;11754;42.664;23.594;2024-01-11T09:01:08;96111.22;;;6.08;37.79
23172;BME280;11754;42.664;23.594;2024-01-11T09:03:34;96098.13;;;7.44;35.44
23172;BME280;11754;42.664;23.594;2024-01-11T09:06:00;96103.56;;;6.80;35.98
23172;BME280;11754;42.664;23.594;2024-01-11T09:08:26;96102.16;;;6.12;36.36
23172;BME280;11754;42.664;23.594;2024-01-11T09:10:51;96100.78;;;4.95;38.55
23172;BME280;11754;42.664;23.594;2024-01-11T09:13:18;96097.41;;;6.06;37.04
23172;BME280;11754;42.664;23.594;2024-01-11T09:15:43;96087.16;;;7.30;36.48
23172;BME280;11754;42.664;23.594;2024-01-11T09:18:09;96079.47;;;9.61;32.53
23172;BME280;11754;42.664;23.594;2024-01-11T09:20:35;96072.94;;;12.29;29.44
23172;BME280;11754;42.664;23.594;2024-01-11T09:23:00;96063.91;;;13.77;27.51
23172;BME280;11754;42.664;23.594;2024-01-11T09:25:32;96059.25;;;15.48;25.00
23172;BME280;11754;42.664;23.594;2024-01-11T09:31:19;96044.59;;;18.16;21.04
23172;BME280;11754;42.664;23.594;2024-01-11T09:33:44;96038.06;;;20.04;19.32
23172;BME280;11754;42.664;23.594;2024-01-11T09:36:11;96025.59;;;21.31;18.38
23172;BME280;11754;42.664;23.594;2024-01-11T09:38:37;96020.31;;;21.87;17.67
23172;BME280;11754;42.664;23.594;2024-01-11T09:41:11;96022.03;;;17.42;20.02
23172;BME280;11754;42.664;23.594;2024-01-11T09:43:37;96023.88;;;17.14;20.80
23172;BME280;11754;42.664;23.594;2024-01-11T09:46:04;96020.28;;;17.97;20.34
23172;BME280;11754;42.664;23.594;2024-01-11T09:48:35;96004.44;;;19.70;19.68
23172;BME280;11754;42.664;23.594;2024-01-11T09:51:02;95990.47;;;23.15;17.04
23172;BME280;11754;42.664;23.594;2024-01-11T09:53:32;95978.84;;;24.83;15.60
23172;BME280;11754;42.664;23.594;2024-01-11T09:55:58;95970.19;;;24.52;14.91
23172;BME280;11754;42.664;23.594;2024-01-11T09:58:25;95958.09;;;25.00;14.98
23172;BME280;11754;42.664;23.594;2024-01-11T10:00:55;95961.97;;;25.99;14.71
23172;BME280;11754;42.664;23.594;2024-01-11T10:03:24;95963.06;;;26.69;13.95
23172;BME280;11754;42.664;23.594;2024-01-11T10:05:50;95957.19;;;28.72;13.31
23172;BME280;11754;42.664;23.594;2024-01-11T10:08:21;95941.94;;;30.48;11.85
23172;BME280;11754;42.664;23.594;2024-01-11T10:10:47;95944.66;;;30.93;11.42
23172;BME280;11754;42.664;23.594;2024-01-11T10:13:13;95938.59;;;31.64;11.38
23172;BME280;11754;42.664;23.594;2024-01-11T10:15:39;95923.53;;;31.96;10.49
23172;BME280;11754;42.664;23.594;2024-01-11T10:18:04;95929.13;;;32.28;10.30
23172;BME280;11754;42.664;23.594;2024-01-11T10:20:30;95920.41;;;33.02;9.82
23172;BME280;11754;42.664;23.594;2024-01-11T10:22:57;95921.06;;;32.94;9.56
23172;BME280;11754;42.664;23.594;2024-01-11T10:25:24;95912.28;;;33.16;9.71
23172;BME280;11754;42.664;23.594;2024-01-11T10:27:50;95906.72;;;34.23;9.27
23172;BME280;11754;42.664;23.594;2024-01-11T10:30:16;95902.72;;;34.29;9.07
23172;BME280;11754;42.664;23.594;2024-01-11T10:32:45;95892.47;;;34.48;8.45
23172;BME280;11754;42.664;23.594;2024-01-11T10:35:12;95903.16;;;33.81;9.38
23172;BME280;11754;42.664;23.594;2024-01-11T10:37:37;95898.53;;;31.35;10.34
23172;BME280;11754;42.664;23.594;2024-01-11T10:40:08;95894.66;;;30.34;10.74
23172;BME280;11754;42.664;23.594;2024-01-11T10:42:50;95881.28;;;31.11;10.15
23172;BME280;11754;42.664;23.594;2024-01-11T10:45:18;95876.22;;;33.00;9.41
23172;BME280;11754;42.664;23.594;2024-01-11T10:47:56;95876.00;;;34.62;8.65
23172;BME280;11754;42.664;23.594;2024-01-11T10:50:25;95863.84;;;35.22;8.43
23172;BME280;11754;42.664;23.594;2024-01-11T10:55:19;95850.88;;;36.68;7.74
23172;BME280;11754;42.664;23.594;2024-01-11T10:57:47;95847.63;;;36.31;7.73
23172;BME280;11754;42.664;23.594;2024-01-11T11:00:13;95839.19;;;35.22;8.52
23172;BME280;11754;42.664;23.594;2024-01-11T11:02:41;95840.25;;;35.83;8.03
23172;BME280;11754;42.664;23.594;2024-01-11T11:05:07;95837.28;;;36.28;7.93
23172;BME280;11754;42.664;23.594;2024-01-11T11:07:35;95818.19;;;36.92;7.46
23172;BME280;11754;42.664;23.594;2024-01-11T11:10:02;95815.84;;;36.47;7.89
23172;BME280;11754;42.664;23.594;2024-01-11T11:12:31;95803.16;;;34.02;8.65
23172;BME280;11754;42.664;23.594;2024-01-11T11:14:58;95798.97;;;34.86;8.64
23172;BME280;11754;42.664;23.594;2024-01-11T11:17:25;95784.44;;;36.14;8.07
23172;BME280;11754;42.664;23.594;2024-01-11T11:19:52;95791.81;;;35.87;7.79
23172;BME280;11754;42.664;23.594;2024-01-11T11:22:19;95777.13;;;35.83;8.03
23172;BME280;11754;42.664;23.594;2024-01-11T11:24:45;95785.84;;;33.24;8.95
23172;BME280;11754;42.664;23.594;2024-01-11T11:27:14;95786.41;;;29.11;10.70
23172;BME280;11754;42.664;23.594;2024-01-11T11:29:41;95778.00;;;26.75;12.13
23172;BME280;11754;42.664;23.594;2024-01-11T11:32:10;95776.94;;;28.07;11.67
23172;BME280;11754;42.664;23.594;2024-01-11T11:34:42;95769.69;;;26.12;12.33
23172;BME280;11754;42.664;23.594;2024-01-11T11:37:12;95764.66;;;26.58;12.08
23172;BME280;11754;42.664;23.594;2024-01-11T11:39:38;95758.19;;;26.32;12.59
23172;BME280;11754;42.664;23.594;2024-01-11T11:42:06;95746.59;;;28.35;11.68
23172;BME280;11754;42.664;23.594;2024-01-11T11:44:33;95748.25;;;30.65;10.80
23172;BME280;11754;42.664;23.594;2024-01-11T11:47:32;95754.94;;;29.70;10.75
23172;BME280;11754;42.664;23.594;2024-01-11T11:50:10;95745.09;;;31.97;9.99
23172;BME280;11754;42.664;23.594;2024-01-11T11:52:39;95732.50;;;34.72;9.04
23172;BME280;11754;42.664;23.594;2024-01-11T11:55:08;95730.50;;;35.26;8.43
23172;BME280;11754;42.664;23.594;2024-01-11T11:57:35;95727.47;;;36.11;7.96
23172;BME280;11754;42.664;23.594;2024-01-11T12:00:01;95715.69;;;37.00;7.89
23172;BME280;11754;42.664;23.594;2024-01-11T12:02:31;95710.00;;;36.06;8.10
23172;BME280;11754;42.664;23.594;2024-01-11T12:04:57;95703.28;;;36.77;7.67
23172;BME280;11754;42.664;23.594;2024-01-11T12:07:22;95705.00;;;35.17;8.47
23172;BME280;11754;42.664;23.594;2024-01-11T12:09:49;95700.50;;;33.41;8.93
23172;BME280;11754;42.664;23.594;2024-01-11T12:12:16;95697.47;;;34.15;8.88
23172;BME280;11754;42.664;23.594;2024-01-11T12:14:43;95689.69;;;32.15;9.35
23172;BME280;11754;42.664;23.594;2024-01-11T12:17:09;95686.28;;;31.53;9.70
23172;BME280;11754;42.664;23.594;2024-01-11T12:19:34;95683.09;;;30.21;10.76
23172;BME280;11754;42.664;23.594;2024-01-11T12:22:00;95679.50;;;30.25;10.46
23172;BME280;11754;42.664;23.594;2024-01-11T12:24:25;95678.88;;;31.72;10.13
23172;BME280;11754;42.664;23.594;2024-01-11T12:26:52;95667.19;;;32.23;9.74
23172;BME280;11754;42.664;23.594;2024-01-11T12:29:19;95675.50;;;31.43;9.98
23172;BME280;11754;42.664;23.594;2024-01-11T12:31:45;95668.84;;;32.05;9.69
23172;BME280;11754;42.664;23.594;2024-01-11T12:34:14;95677.41;;;30.75;10.16
23172;BME280;11754;42.664;23.594;2024-01-11T12:36:40;95669.84;;;30.09;10.77
23172;BME280;11754;42.664;23.594;2024-01-11T12:39:06;95659.41;;;30.74;10.17
23172;BME280;11754;42.664;23.594;2024-01-11T12:41:32;95663.34;;;30.05;10.55
23172;BME280;11754;42.664;23.594;2024-01-11T12:43:58;95654.88;;;30.40;10.57
23172;BME280;11754;42.664;23.594;2024-01-11T12:46:24;95649.75;;;30.87;10.58
23172;BME280;11754;42.664;23.594;2024-01-11T12:48:50;95645.66;;;32.96;9.63
23172;BME280;11754;42.664;23.594;2024-01-11T12:51:16;95642.16;;;32.35;9.85
23172;BME280;11754;42.664;23.594;2024-01-11T12:53:45;95641.19;;;31.42;10.15
23172;BME280;11754;42.664;23.594;2024-01-11T12:56:14;95639.56;;;33.27;9.31
23172;BME280;11754;42.664;23.594;2024-01-11T12:58:41;95635.63;;;31.09;10.49
23172;BME280;11754;42.664;23.594;2024-01-11T13:01:07;95632.91;;;32.77;9.76
23172;BME280;11754;42.664;23.594;2024-01-11T13:03:38;95628.97;;;30.96;10.58
23172;BME280;11754;42.664;23.594;2024-01-11T13:06:04;95624.50;;;31.24;10.02
23172;BME280;11754;42.664;23.594;2024-01-11T13:08:31;95620.34;;;30.89;10.71
23172;BME280;11754;42.664;23.594;2024-01-11T13:10:56;95620.56;;;28.92;11.27
23172;BME280;11754;42.664;23.594;2024-01-11T13:13:22;95619.19;;;29.84;11.29
23172;BME280;11754;42.664;23.594;2024-01-11T13:15:47;95609.84;;;31.58;10.69
23172;BME280;11754;42.664;23.594;2024-01-11T13:18:13;95608.22;;;33.10;10.02